Time;durP1;ratioP1;P1;durP2;ratioP2;P2;SDS_P1;SDS_P2;PMS_P1;PMS_P2;Temp;Humidity;BMP_temperature;BMP_pressure;BME280_temperature;BME280_humidity;BME280_pressure;Samples;Min_cycle;Max_cycle;Signal;HPM_P1;HPM_P2
2023/02/08 00:01:29;;;;;;;25.00;9.40;;;;;;;-8.98;74.79;101349.40;105199;1262;74261;-26
2023/02/08 00:03:57;;;;;;;24.00;11.10;;;;;;;-8.54;74.01;101357.98;105440;1258;61094;-26
2023/02/08 00:06:26;;;;;;;26.60;11.70;;;;;;;-8.62;73.07;101359.42;105340;1261;61763;-26
2023/02/08 00:08:55;;;;;;;28.90;13.90;;;;;;;-8.88;73.68;101360.55;105192;1257;75379;-26
2023/02/08 00:11:24;;;;;;;23.60;11.40;;;;;;;-9.21;73.97;101359.71;105617;1260;75571;-26
2023/02/08 00:13:52;;;;;;;34.10;12.60;;;;;;;-9.56;75.68;101359.29;105643;1257;73988;-26
2023/02/08 00:16:21;;;;;;;17.70;8.40;;;;;;;-9.82;77.09;101356.45;105594;1257;61764;-26
2023/02/08 00:18:50;;;;;;;17.90;9.20;;;;;;;-9.58;77.02;101359.55;105422;1260;61545;-26
2023/02/08 00:21:19;;;;;;;22.40;11.70;;;;;;;-8.92;74.45;101360.74;105394;1258;75382;-26
2023/02/08 00:23:48;;;;;;;25.70;11.80;;;;;;;-8.81;72.66;101363.14;105441;1257;75833;-26
2023/02/08 00:26:17;;;;;;;30.10;11.40;;;;;;;-9.02;73.00;101365.78;105487;1263;74228;-26
2023/02/08 00:28:46;;;;;;;25.30;11.80;;;;;;;-9.33;73.42;101362.45;105597;1260;61198;-26
2023/02/08 00:31:17;;;;;;;24.40;11.20;;;;;;;-9.69;74.15;101364.65;105581;1260;61449;-26
2023/02/08 00:33:46;;;;;;;20.00;8.80;;;;;;;-10.02;75.04;101366.41;105610;1258;75065;-26
2023/02/08 00:36:15;;;;;;;8.80;4.40;;;;;;;-10.12;75.29;101364.69;105346;1263;76098;-26
2023/02/08 00:38:44;;;;;;;34.10;12.10;;;;;;;-9.43;74.78;101368.85;105425;1257;73897;-27
2023/02/08 00:41:13;;;;;;;34.30;13.70;;;;;;;-9.04;73.90;101369.09;105390;1262;61173;-26
2023/02/08 00:43:41;;;;;;;34.80;13.90;;;;;;;-9.12;72.82;101371.63;105398;1260;61114;-26
2023/02/08 00:46:10;;;;;;;25.30;10.90;;;;;;;-9.48;72.31;101371.35;105613;1257;75463;-26
2023/02/08 00:48:42;;;;;;;29.10;13.30;;;;;;;-9.90;72.62;101376.45;105555;1264;76017;-26
2023/02/08 00:51:12;;;;;;;19.10;7.20;;;;;;;-10.30;73.60;101380.41;105557;1257;74210;-26
2023/02/08 00:53:43;;;;;;;10.90;4.50;;;;;;;-10.49;74.98;101382.02;105153;1263;63505;-26
2023/02/08 00:56:13;;;;;;;20.70;8.90;;;;;;;-9.80;74.98;101382.89;105314;1263;61965;-26
2023/02/08 00:58:43;;;;;;;22.90;10.40;;;;;;;-9.32;73.47;101383.56;105589;1257;75033;-27
2023/02/08 01:01:12;;;;;;;21.60;9.80;;;;;;;-9.44;73.11;101383.61;105589;1258;75590;-26
2023/02/08 01:03:41;;;;;;;115.30;48.90;;;;;;;-9.72;74.26;101382.54;105561;1261;73147;-27
2023/02/08 01:06:16;;;;;;;247.70;95.50;;;;;;;-10.03;75.57;101384.66;105633;1257;62483;-26
2023/02/08 01:08:45;;;;;;;246.80;94.30;;;;;;;-10.39;77.34;101388.30;105560;1258;61141;-26
2023/02/08 01:11:21;;;;;;;177.60;70.20;;;;;;;-10.36;78.88;101394.29;105567;1257;74326;-26
2023/02/08 01:13:53;;;;;;;325.80;122.90;;;;;;;-9.51;76.89;101395.43;105473;1258;75806;-26
2023/02/08 01:16:31;;;;;;;138.90;58.50;;;;;;;-9.15;74.74;101398.31;105586;1257;74293;-26
2023/02/08 01:19:01;;;;;;;40.60;18.70;;;;;;;-9.30;73.90;101400.59;105309;1264;61311;-26
2023/02/08 01:21:35;;;;;;;33.20;15.20;;;;;;;-9.64;74.14;101398.15;105480;1263;61826;-26
2023/02/08 01:24:04;;;;;;;29.90;12.30;;;;;;;-9.99;74.98;101401.46;105557;1263;75350;-26
2023/02/08 01:26:32;;;;;;;38.70;18.90;;;;;;;-10.31;75.92;101372.65;105470;1257;76221;-26
2023/02/08 01:29:01;;;;;;;34.80;18.10;;;;;;;-10.27;77.17;101360.05;105560;1260;72190;-26
2023/02/08 01:31:31;;;;;;;67.00;31.80;;;;;;;-9.64;76.62;101358.30;105667;1257;61163;-26
2023/02/08 01:34:00;;;;;;;57.20;27.60;;;;;;;-9.50;75.91;101364.21;105296;1260;61881;-26
2023/02/08 01:36:29;;;;;;;46.50;23.10;;;;;;;-9.74;76.47;101363.64;105604;1257;75324;-26
2023/02/08 01:38:57;;;;;;;41.60;21.90;;;;;;;-9.91;77.60;101362.46;105483;1262;75866;-26
2023/02/08 01:41:31;;;;;;;40.60;23.90;;;;;;;-10.23;78.57;101367.94;105607;1260;72144;-26
2023/02/08 01:44:03;;;;;;;34.10;16.40;;;;;;;-10.34;79.57;101376.55;105559;1256;61602;-26
2023/02/08 01:46:47;;;;;;;25.50;13.60;;;;;;;-10.11;79.36;101379.33;105463;1259;61903;-26
2023/02/08 01:49:17;;;;;;;;;;;;;;;-9.23;76.92;101384.39;105517;1258;75320;-26
2023/02/08 01:51:58;;;;;;;48.20;21.80;;;;;;;-9.26;75.60;101386.31;105453;1258;75863;-26
2023/02/08 01:54:30;;;;;;;74.40;37.40;;;;;;;-9.27;75.40;101390.14;105473;1260;72978;-26
2023/02/08 01:56:58;;;;;;;81.80;35.50;;;;;;;-9.67;76.05;101393.85;105511;1258;61209;-26
2023/02/08 01:59:55;;;;;;;60.00;27.50;;;;;;;-9.96;76.46;101389.18;105200;1262;61523;-26
2023/02/08 02:02:24;;;;;;;22.00;10.50;;;;;;;-10.30;78.40;101395.55;105402;1257;75430;-26
2023/02/08 02:04:53;;;;;;;19.80;8.90;;;;;;;-10.01;78.41;101394.86;105191;1263;74899;-26
2023/02/08 02:07:25;;;;;;;52.00;22.70;;;;;;;-9.27;76.11;101396.34;105479;1257;73995;-26
2023/02/08 02:10:01;;;;;;;31.60;14.10;;;;;;;-9.07;74.33;101397.27;105480;1263;61106;-26
2023/02/08 02:12:32;;;;;;;56.30;23.40;;;;;;;-9.35;74.11;101391.01;105450;1256;61636;-26
2023/02/08 02:15:02;;;;;;;30.00;13.20;;;;;;;-9.65;74.50;101399.96;105519;1257;75084;-26
2023/02/08 02:17:31;;;;;;;44.40;17.80;;;;;;;-10.00;74.78;101403.65;105312;1257;74646;-26
2023/02/08 02:20:09;;;;;;;18.60;9.00;;;;;;;-10.28;75.92;101411.05;105482;1257;74267;-26
2023/02/08 02:23:16;;;;;;;9.50;4.10;;;;;;;-10.00;76.34;101413.89;105447;1257;62413;-26
2023/02/08 02:26:02;;;;;;;15.80;7.30;;;;;;;-9.07;75.16;101423.65;105597;1262;61322;-26
2023/02/08 02:29:00;;;;;;;18.80;9.20;;;;;;;-9.02;73.89;101422.84;105609;1257;75373;-26
2023/02/08 02:31:57;;;;;;;21.40;9.70;;;;;;;-9.41;73.33;101420.89;105477;1257;75606;-26
2023/02/08 02:34:29;;;;;;;48.30;25.00;;;;;;;-9.89;74.22;101423.27;105670;1257;73168;-26
2023/02/08 02:37:17;;;;;;;33.90;17.30;;;;;;;-10.32;75.77;101423.34;105389;1260;61371;-26
2023/02/08 02:40:08;;;;;;;27.90;14.40;;;;;;;-10.48;77.73;101427.88;105460;1262;61728;-26
2023/02/08 02:46:05;;;;;;;50.50;20.30;;;;;;;-9.60;75.40;101442.54;105433;1257;75898;-26
2023/02/08 02:48:39;;;;;;;62.90;19.00;;;;;;;-9.82;72.72;101448.57;105555;1256;73966;-26
2023/02/08 02:51:14;;;;;;;25.80;12.30;;;;;;;-10.24;73.33;101450.55;105424;1257;61177;-26
2023/02/08 02:53:51;;;;;;;117.20;45.10;;;;;;;-10.76;75.84;101452.58;105279;1266;61725;-26
2023/02/08 02:56:31;;;;;;;58.60;23.50;;;;;;;-11.03;78.65;101454.91;105274;1257;74479;-26
2023/02/08 02:59:02;;;;;;;146.90;63.60;;;;;;;-10.53;78.68;101456.55;105170;1256;74838;-26
2023/02/08 03:01:30;;;;;;;135.80;62.10;;;;;;;-10.22;77.69;101463.05;105446;1259;73186;-26
2023/02/08 03:03:59;;;;;;;94.70;41.00;;;;;;;-10.20;77.04;101463.00;105539;1263;61218;-26
2023/02/08 03:06:36;;;;;;;52.90;25.90;;;;;;;-10.52;77.71;101458.65;105489;1260;61950;-26
2023/02/08 03:09:16;;;;;;;49.80;20.20;;;;;;;-10.67;78.19;101454.62;105541;1257;73950;-26
2023/02/08 03:11:56;;;;;;;21.80;9.90;;;;;;;-10.88;79.34;101458.73;105396;1257;75520;-26
2023/02/08 03:14:44;;;;;;;17.20;8.90;;;;;;;-10.32;78.50;101465.51;105523;1257;74226;-26
2023/02/08 03:17:55;;;;;;;13.40;6.00;;;;;;;-9.36;77.49;101472.90;105591;1257;61004;-26
2023/02/08 03:28:34;;;;;;;12.50;5.00;;;;;;;-10.31;74.40;101477.81;102654;1294;600045;-26
2023/02/08 03:31:30;;;;;;;6.90;3.20;;;;;;;-10.41;74.65;101476.73;104748;1267;63518;-26
2023/02/08 03:34:06;;;;;;;15.10;6.80;;;;;;;-9.56;74.04;101485.41;105084;1269;61861;-26
2023/02/08 03:36:55;;;;;;;23.40;12.30;;;;;;;-9.33;73.33;101486.48;104749;1267;73835;-26
2023/02/08 03:39:26;;;;;;;20.80;10.00;;;;;;;-9.56;72.47;101493.47;104877;1269;73984;-26
2023/02/08 03:41:57;;;;;;;31.10;13.90;;;;;;;-9.96;71.92;101494.40;103455;1264;1960491;-25
2023/02/08 03:44:41;;;;;;;61.90;27.30;;;;;;;-10.43;71.82;101499.48;105140;1262;61067;-26
2023/02/08 03:47:19;;;;;;;16.00;6.50;;;;;;;-10.81;72.44;101500.52;104914;1263;61157;-26
2023/02/08 03:49:48;;;;;;;23.60;9.40;;;;;;;-10.25;73.07;101505.60;105179;1264;73352;-26
2023/02/08 03:52:17;;;;;;;48.50;20.90;;;;;;;-9.71;71.37;101511.04;105055;1264;75911;-26
2023/02/08 03:54:52;;;;;;;28.70;12.50;;;;;;;-9.85;70.04;101515.51;105224;1263;73765;-26
2023/02/08 03:57:29;;;;;;;24.30;10.10;;;;;;;-10.24;69.79;101522.13;105152;1263;61154;-25
2023/02/08 04:00:13;;;;;;;22.80;10.80;;;;;;;-10.66;70.59;101523.00;105173;1263;61097;-26
2023/02/08 04:03:03;;;;;;;13.40;6.00;;;;;;;-11.05;71.55;101525.45;105195;1264;74269;-26
2023/02/08 04:05:32;;;;;;;10.30;5.80;;;;;;;-10.74;72.88;101526.67;105083;1264;75793;-26
2023/02/08 04:08:00;;;;;;;39.50;17.30;;;;;;;-10.04;73.07;101534.92;105187;1265;72414;-26
2023/02/08 04:10:29;;;;;;;46.40;24.30;;;;;;;-9.87;72.53;101535.80;105025;1263;61071;-26
2023/02/08 04:12:58;;;;;;;38.60;20.90;;;;;;;-10.13;72.79;101546.27;105151;1264;61607;-26
2023/02/08 04:15:27;;;;;;;45.10;22.20;;;;;;;-10.51;73.36;101546.15;105109;1263;73598;-26
2023/02/08 04:17:57;;;;;;;33.10;14.30;;;;;;;-10.91;74.13;101549.75;104202;1264;1002906;-26
2023/02/08 04:20:25;;;;;;;14.50;4.80;;;;;;;-11.09;75.12;101552.95;104836;1269;74363;-26
2023/02/08 04:22:55;;;;;;;33.90;13.70;;;;;;;-10.42;74.43;101560.64;105054;1263;61070;-26
2023/02/08 04:25:24;;;;;;;32.40;15.40;;;;;;;-10.02;73.49;101563.23;105125;1264;61843;-26
2023/02/08 04:27:53;;;;;;;27.70;14.70;;;;;;;-10.06;72.85;101564.72;104962;1263;73831;-26
2023/02/08 04:30:22;;;;;;;45.80;22.60;;;;;;;-10.35;73.35;101558.95;105005;1269;74859;-26
2023/02/08 04:32:50;;;;;;;39.50;21.30;;;;;;;-10.72;74.59;101557.98;104825;1264;74001;-25
2023/02/08 04:35:19;;;;;;;27.60;13.00;;;;;;;-11.00;75.53;101566.27;105003;1264;61912;-25
2023/02/08 04:37:47;;;;;;;15.40;8.30;;;;;;;-10.86;76.71;101566.09;104756;1269;61882;-26
2023/02/08 04:40:16;;;;;;;29.70;16.80;;;;;;;-10.11;75.22;101565.86;104968;1264;74428;-26
2023/02/08 04:42:44;;;;;;;29.30;15.40;;;;;;;-9.92;73.72;101564.64;104953;1264;75530;-26
2023/02/08 04:45:13;;;;;;;30.10;15.20;;;;;;;-10.05;73.48;101564.10;105608;1257;73677;-26
2023/02/08 04:47:42;;;;;;;17.90;9.90;;;;;;;-10.41;73.18;101558.18;105343;1261;61269;-26
2023/02/08 04:50:10;;;;;;;23.10;11.00;;;;;;;-10.83;73.90;101560.20;105448;1263;61245;-26
2023/02/08 04:52:39;;;;;;;7.20;3.80;;;;;;;-11.06;75.07;101561.48;105315;1257;74803;-26
2023/02/08 04:55:08;;;;;;;6.60;2.90;;;;;;;-10.50;75.29;101562.81;105299;1257;75865;-26
2023/02/08 04:57:36;;;;;;;25.90;11.40;;;;;;;-9.80;73.81;101566.48;105583;1257;73869;-25
2023/02/08 05:00:06;;;;;;;22.50;13.30;;;;;;;-9.74;72.71;101564.39;105640;1262;61186;-26
2023/02/08 05:02:35;;;;;;;33.10;16.10;;;;;;;-10.02;72.22;101565.58;105609;1257;61096;-25
2023/02/08 05:05:03;;;;;;;36.90;17.10;;;;;;;-10.40;72.10;101570.17;105558;1257;74590;-25
2023/02/08 05:07:33;;;;;;;19.20;8.40;;;;;;;-10.79;71.92;101568.61;105592;1258;75795;-26
2023/02/08 05:10:03;;;;;;;10.00;5.10;;;;;;;-10.91;72.25;101573.06;105564;1257;73987;-25
2023/02/08 05:12:34;;;;;;;29.70;10.60;;;;;;;-10.22;72.40;101571.60;105466;1257;61169;-26
2023/02/08 05:22:45;;;;;;;34.40;17.10;;;;;;;-10.81;70.64;101581.45;102746;1294;599506;-26
2023/02/08 05:25:13;;;;;;;15.80;5.30;;;;;;;-11.19;71.57;101583.17;105163;1269;63514;-26
2023/02/08 05:27:41;;;;;;;18.00;7.90;;;;;;;-10.86;71.78;101586.04;105159;1270;61584;-26
2023/02/08 05:30:11;;;;;;;38.40;16.20;;;;;;;-10.13;71.34;101590.46;104941;1264;73877;-26
2023/02/08 05:32:40;;;;;;;41.80;18.00;;;;;;;-9.99;70.29;101596.63;104901;1273;74224;-26
2023/02/08 05:35:08;;;;;;;37.00;18.60;;;;;;;-10.37;68.01;101597.19;105153;1270;73579;-26
2023/02/08 05:37:37;;;;;;;39.50;19.90;;;;;;;-11.00;67.85;101598.98;103934;1267;62129;-26
2023/02/08 05:40:07;;;;;;;25.40;10.60;;;;;;;-11.57;68.05;101602.84;105290;1261;61564;-25
2023/02/08 05:42:35;;;;;;;11.80;5.10;;;;;;;-11.68;69.79;101604.46;105163;1264;73727;-25
2023/02/08 05:45:05;;;;;;;30.00;14.60;;;;;;;-11.02;69.04;101603.61;105276;1263;75661;-26
2023/02/08 05:47:33;;;;;;;34.90;17.70;;;;;;;-10.68;68.46;101607.52;105152;1276;74140;-26
2023/02/08 05:50:02;;;;;;;36.20;20.40;;;;;;;-10.75;68.11;101610.55;105259;1264;61068;-25
2023/02/08 05:52:31;;;;;;;29.90;15.50;;;;;;;-11.07;68.17;101604.56;105254;1266;61084;-25
2023/02/08 05:54:59;;;;;;;26.10;12.10;;;;;;;-11.54;68.09;101606.98;105259;1265;73474;-25
2023/02/08 05:57:28;;;;;;;9.80;3.70;;;;;;;-11.96;68.79;101610.94;105158;1266;75811;-25
2023/02/08 05:59:59;;;;;;;12.00;5.60;;;;;;;-11.42;68.94;101622.15;105107;1266;73353;-26
2023/02/08 06:02:27;;;;;;;22.20;9.60;;;;;;;-10.89;66.91;101625.55;105151;1266;61071;-26
2023/02/08 06:04:57;;;;;;;17.40;8.90;;;;;;;-10.94;66.44;101630.02;104932;1263;61867;-26
2023/02/08 06:07:25;;;;;;;16.30;7.20;;;;;;;-11.22;66.21;101633.18;104948;1270;73576;-26
2023/02/08 06:09:54;;;;;;;38.60;19.70;;;;;;;-11.57;66.77;101640.17;105253;1267;75774;-25
2023/02/08 06:12:22;;;;;;;64.50;29.30;;;;;;;-11.78;69.16;101638.28;105273;1264;73975;-26
2023/02/08 06:14:53;;;;;;;66.90;31.80;;;;;;;-11.40;72.82;101645.04;105131;1266;62249;-25
2023/02/08 06:17:22;;;;;;;87.30;38.80;;;;;;;-10.59;72.18;101649.43;105172;1266;61044;-26
2023/02/08 06:19:51;;;;;;;58.30;29.00;;;;;;;-10.55;71.59;101648.59;105193;1264;74385;-26
2023/02/08 06:22:19;;;;;;;55.50;26.60;;;;;;;-10.80;73.02;101653.66;105216;1266;75920;-25
2023/02/08 06:24:48;;;;;;;87.00;39.50;;;;;;;-10.99;74.84;101653.61;105193;1266;73977;-25
2023/02/08 06:27:16;;;;;;;98.00;53.40;;;;;;;-11.23;76.46;101656.80;105936;1251;61904;-25
2023/02/08 06:29:45;;;;;;;195.10;107.60;;;;;;;-11.50;78.32;101658.65;105973;1252;62333;-25
2023/02/08 06:32:13;;;;;;;164.30;80.90;;;;;;;-11.03;78.22;101663.78;105971;1251;74988;-25
2023/02/08 06:34:42;;;;;;;445.70;204.70;;;;;;;-10.42;75.98;101661.10;105911;1251;75838;-26
2023/02/08 06:37:10;;;;;;;65.20;30.40;;;;;;;-10.33;75.92;101661.86;105897;1251;74025;-26
2023/02/08 06:39:40;;;;;;;85.70;46.90;;;;;;;-10.32;75.59;101662.71;105812;1251;61217;-26
2023/02/08 06:42:08;;;;;;;102.20;54.90;;;;;;;-10.25;75.77;101663.88;105954;1257;61163;-25
2023/02/08 06:44:37;;;;;;;35.50;19.50;;;;;;;-10.31;76.15;101668.32;105927;1251;74702;-25
2023/02/08 06:47:13;;;;;;;38.80;21.20;;;;;;;-10.87;77.27;101668.95;105858;1251;75759;-25
2023/02/08 06:49:41;;;;;;;20.80;9.50;;;;;;;-11.07;79.21;101675.03;105979;1251;74641;-25
2023/02/08 06:52:10;;;;;;;23.60;13.30;;;;;;;-10.28;78.58;101675.51;105938;1251;63218;-25
2023/02/08 06:54:38;;;;;;;35.70;17.90;;;;;;;-9.65;75.98;101679.29;105940;1251;61848;-26
2023/02/08 06:57:07;;;;;;;76.30;54.30;;;;;;;-9.57;74.58;101676.44;106035;1251;74355;-25
2023/02/08 06:59:36;;;;;;;30.20;15.70;;;;;;;-9.21;74.20;101680.64;105725;1261;75612;-26
2023/02/08 07:02:05;;;;;;;24.30;13.30;;;;;;;-9.53;74.09;101683.84;106003;1256;74183;-26
2023/02/08 07:04:33;;;;;;;24.30;12.00;;;;;;;-9.67;75.60;101685.94;105735;1251;61913;-26
2023/02/08 07:07:02;;;;;;;39.00;19.50;;;;;;;-9.64;75.48;101690.10;105931;1255;61632;-25
2023/02/08 07:09:33;;;;;;;65.80;32.60;;;;;;;-9.81;76.35;101689.20;105878;1251;74711;-25
2023/02/08 07:12:05;;;;;;;179.90;76.00;;;;;;;-9.93;76.78;101696.40;105496;1251;75891;-25
2023/02/08 07:14:35;;;;;;;92.30;42.30;;;;;;;-10.22;77.82;101696.63;105753;1257;72926;-26
2023/02/08 07:17:05;;;;;;;44.40;17.70;;;;;;;-9.92;77.70;101703.66;105764;1251;61124;-25
2023/02/08 07:19:34;;;;;;;368.20;169.70;;;;;;;-8.79;75.40;101710.77;105999;1257;61548;-25
2023/02/08 07:22:06;;;;;;;356.90;159.60;;;;;;;-8.63;73.08;101712.46;105933;1251;74518;-26
2023/02/08 07:24:38;;;;;;;;;;;;;;;-9.17;73.83;101711.61;105849;1251;75921;-26
2023/02/08 07:27:08;;;;;;;908.30;477.50;;;;;;;-9.44;75.20;101713.00;105749;1251;74012;-26
2023/02/08 07:29:37;;;;;;;116.30;50.80;;;;;;;-9.54;76.23;101715.27;105886;1251;60988;-26
2023/02/08 07:32:06;;;;;;;155.00;65.90;;;;;;;-9.18;76.11;101723.36;105882;1257;62138;-25
2023/02/08 07:34:35;;;;;;;61.80;31.80;;;;;;;-9.04;75.15;101726.30;105821;1259;74531;-26
2023/02/08 07:37:06;;;;;;;58.80;25.70;;;;;;;-8.92;74.95;101725.93;105765;1251;74829;-26
2023/02/08 07:39:36;;;;;;;127.10;66.60;;;;;;;-8.75;74.70;101722.41;105897;1257;75027;-26
2023/02/08 07:42:05;;;;;;;66.40;32.60;;;;;;;-8.69;74.00;101716.61;105967;1251;61077;-26
2023/02/08 07:44:36;;;;;;;317.40;161.90;;;;;;;-8.90;74.41;101724.51;105979;1251;61163;-26
2023/02/08 07:47:09;;;;;;;101.20;50.60;;;;;;;-8.88;75.08;101729.66;105899;1251;74336;-26
2023/02/08 07:50:06;;;;;;;41.50;21.50;;;;;;;-8.61;74.04;101732.23;105762;1251;74848;-26
2023/02/08 07:52:35;;;;;;;37.10;19.60;;;;;;;-8.16;73.44;101728.22;105997;1251;72210;-26
2023/02/08 07:55:03;;;;;;;26.40;12.20;;;;;;;-7.89;72.25;101726.02;105958;1251;61840;-26
2023/02/08 07:57:32;;;;;;;23.90;10.80;;;;;;;-7.53;72.04;101724.80;106000;1255;61645;-26
2023/02/08 08:00:02;;;;;;;20.30;11.60;;;;;;;-7.23;70.93;101724.81;105878;1251;74395;-26
2023/02/08 08:02:39;;;;;;;21.80;10.60;;;;;;;-6.94;69.96;101721.73;105725;1251;75690;-27
2023/02/08 08:05:08;;;;;;;25.30;12.80;;;;;;;-6.91;69.14;101718.80;105834;1251;73644;-27
2023/02/08 08:07:38;;;;;;;24.60;11.10;;;;;;;-6.81;69.62;101722.16;105843;1257;61121;-26
2023/02/08 08:10:07;;;;;;;21.80;12.20;;;;;;;-6.73;69.12;101720.73;105917;1251;61437;-26
2023/02/08 08:12:36;;;;;;;22.90;11.90;;;;;;;-6.64;68.56;101719.16;105926;1251;74598;-26
2023/02/08 08:15:06;;;;;;;37.60;15.70;;;;;;;-6.46;68.86;101719.89;105826;1251;75664;-26
2023/02/08 08:17:35;;;;;;;27.50;12.90;;;;;;;-6.16;68.80;101718.11;105703;1260;74330;-26
2023/02/08 08:20:03;;;;;;;17.80;9.70;;;;;;;-5.84;67.85;101721.38;105713;1251;61669;-26
2023/02/08 08:22:32;;;;;;;16.30;7.70;;;;;;;-5.60;67.11;101724.25;105853;1251;61597;-26
2023/02/08 08:25:00;;;;;;;17.40;9.10;;;;;;;-5.22;66.41;101732.71;105829;1254;74525;-26
2023/02/08 08:27:30;;;;;;;16.60;8.50;;;;;;;-4.94;64.11;101737.18;105532;1257;75668;-27
2023/02/08 08:29:59;;;;;;;26.00;11.80;;;;;;;-4.83;63.80;101742.86;105611;1254;73947;-26
2023/02/08 08:32:28;;;;;;;31.60;13.80;;;;;;;-4.66;62.45;101748.38;105848;1256;61179;-26
2023/02/08 08:34:57;;;;;;;39.10;15.00;;;;;;;-4.43;62.75;101749.27;105876;1256;61855;-26
2023/02/08 08:37:26;;;;;;;31.50;13.00;;;;;;;-4.26;61.11;101744.91;105626;1257;74622;-25
2023/02/08 08:39:54;;;;;;;24.90;10.80;;;;;;;-3.92;63.41;101743.95;105867;1256;76236;-26
2023/02/08 08:42:23;;;;;;;22.30;10.90;;;;;;;-3.60;62.54;101749.36;105924;1254;74163;-26
2023/02/08 08:44:52;;;;;;;21.20;11.10;;;;;;;-3.53;59.68;101755.45;105913;1253;61258;-26
2023/02/08 08:47:22;;;;;;;22.80;11.60;;;;;;;-3.84;59.76;101761.94;105725;1257;61744;-26
2023/02/08 08:49:50;;;;;;;23.80;13.30;;;;;;;-3.99;60.13;101766.55;105713;1254;72558;-26
2023/02/08 08:52:19;;;;;;;23.50;12.60;;;;;;;-4.23;59.25;101768.39;105803;1254;75664;-26
2023/02/08 08:54:47;;;;;;;40.00;20.40;;;;;;;-4.37;60.13;101766.88;105813;1254;74279;-26
2023/02/08 08:57:16;;;;;;;42.20;20.00;;;;;;;-4.24;60.07;101769.89;105885;1254;60994;-26
2023/02/08 08:59:44;;;;;;;38.60;20.90;;;;;;;-4.27;59.96;101773.20;105825;1252;61861;-26
2023/02/08 09:02:14;;;;;;;46.40;24.00;;;;;;;-4.19;60.54;101775.10;105858;1253;74807;-26
2023/02/08 09:04:43;;;;;;;43.80;23.10;;;;;;;-4.33;60.41;101780.19;105799;1254;75895;-26
2023/02/08 09:07:11;;;;;;;47.20;22.90;;;;;;;-4.16;61.52;101782.46;105736;1256;74298;-26
2023/02/08 09:09:40;;;;;;;42.00;22.50;;;;;;;-3.87;61.24;101781.58;105929;1253;60991;-26
2023/02/08 09:12:09;;;;;;;38.50;19.90;;;;;;;-3.89;59.53;101779.84;105929;1253;61747;-25
2023/02/08 09:14:38;;;;;;;41.90;20.70;;;;;;;-3.84;59.52;101780.96;105881;1255;74272;-25
2023/02/08 09:17:07;;;;;;;30.50;16.80;;;;;;;-3.32;59.51;101777.61;105939;1254;75836;-25
2023/02/08 09:19:36;;;;;;;39.00;20.30;;;;;;;-2.67;59.21;101776.24;105893;1254;73187;-26
2023/02/08 09:22:06;;;;;;;37.10;19.30;;;;;;;-2.19;57.74;101773.08;105918;1257;61192;-25
2023/02/08 09:24:34;;;;;;;35.60;19.10;;;;;;;-1.84;56.24;101771.87;105673;1254;61044;-25
2023/02/08 09:27:03;;;;;;;35.80;21.00;;;;;;;-1.52;55.12;101772.45;105681;1254;74522;-24
2023/02/08 09:29:32;;;;;;;39.90;22.30;;;;;;;-1.35;55.15;101772.15;105766;1254;75664;-25
2023/02/08 09:32:01;;;;;;;37.80;18.80;;;;;;;-1.10;53.74;101775.83;105836;1256;73225;-24
2023/02/08 09:34:30;;;;;;;30.40;16.30;;;;;;;-1.18;53.30;101770.45;105834;1254;61139;-25
2023/02/08 09:36:59;;;;;;;40.60;22.30;;;;;;;-1.47;52.73;101765.87;105870;1257;61815;-25
2023/02/08 09:39:28;;;;;;;36.20;20.60;;;;;;;-1.53;53.60;101760.52;105614;1254;75336;-25
2023/02/08 09:42:28;;;;;;;36.70;19.00;;;;;;;-1.39;52.69;101760.52;105558;1256;75978;-24
2023/02/08 09:45:18;;;;;;;41.20;20.70;;;;;;;-1.00;53.05;101765.20;105806;1254;73874;-25
2023/02/08 09:48:05;;;;;;;45.00;21.10;;;;;;;-0.90;53.21;101762.20;105680;1254;61166;-25
2023/02/08 09:50:41;;;;;;;32.00;18.60;;;;;;;-0.63;51.46;101756.31;105468;1259;61851;-25
2023/02/08 09:53:16;;;;;;;33.10;16.40;;;;;;;-0.75;50.85;101752.27;105528;1254;74428;-25
2023/02/08 09:55:54;;;;;;;28.60;16.20;;;;;;;-0.40;51.50;101752.39;105300;1254;75852;-24
2023/02/08 09:58:34;;;;;;;29.90;16.50;;;;;;;-0.73;50.28;101750.42;105478;1254;73332;-24
2023/02/08 10:01:06;;;;;;;31.40;16.70;;;;;;;-0.69;51.19;101748.75;105651;1252;61609;-24
2023/02/08 10:03:40;;;;;;;29.80;16.90;;;;;;;-0.42;49.81;101749.83;105558;1254;61055;-25
2023/02/08 10:06:17;;;;;;;26.80;15.10;;;;;;;-0.52;51.43;101746.16;105466;1254;75400;-25
2023/02/08 10:15:18;;;;;;;27.80;15.20;;;;;;;-1.80;53.41;101745.52;102715;1292;600004;-24
2023/02/08 10:17:52;;;;;;;27.90;15.60;;;;;;;-1.86;53.00;101745.11;104835;1266;61202;-26
2023/02/08 10:20:27;;;;;;;24.80;13.00;;;;;;;-1.46;52.51;101738.78;104768;1274;61214;-26
2023/02/08 10:23:17;;;;;;;27.60;14.70;;;;;;;-1.34;52.02;101738.41;104815;1266;72500;-26
2023/02/08 10:26:26;;;;;;;28.90;13.90;;;;;;;-1.36;52.28;101733.45;104884;1266;75863;-25
2023/02/08 10:29:03;;;;;;;19.10;9.70;;;;;;;-0.92;51.12;101735.06;103769;1266;1735502;-26
2023/02/08 10:31:43;;;;;;;21.60;10.80;;;;;;;-1.18;51.24;101733.30;104835;1264;61138;-25
2023/02/08 10:34:40;;;;;;;21.40;12.20;;;;;;;-0.78;51.27;101731.45;104818;1266;61724;-26
2023/02/08 10:37:17;;;;;;;20.10;10.50;;;;;;;-0.48;50.19;101733.21;104817;1267;72722;-25
2023/02/08 10:39:46;;;;;;;17.80;9.60;;;;;;;-0.66;49.94;101731.54;104842;1266;75801;-25
2023/02/08 10:42:18;;;;;;;21.10;9.60;;;;;;;-1.12;50.56;101723.80;104763;1266;73384;-25
2023/02/08 10:45:03;;;;;;;21.10;11.80;;;;;;;-1.24;51.58;101728.80;105638;1253;61090;-25
2023/02/08 10:47:54;;;;;;;18.90;10.90;;;;;;;-0.94;50.74;101729.60;105557;1253;61296;-25
2023/02/08 10:50:38;;;;;;;19.60;9.70;;;;;;;-0.29;49.56;101728.23;105472;1258;73516;-25
2023/02/08 10:53:18;;;;;;;20.50;9.70;;;;;;;0.11;48.42;101729.47;105709;1260;75282;-25
2023/02/08 10:55:47;;;;;;;17.40;10.30;;;;;;;-0.13;48.55;101726.79;105284;1253;73145;-26
2023/02/08 10:58:21;;;;;;;16.60;9.30;;;;;;;-0.42;49.12;101728.13;105562;1256;61092;-26
2023/02/08 11:00:50;;;;;;;15.60;8.80;;;;;;;0.05;49.17;101727.05;105389;1261;61870;-26
2023/02/08 11:03:22;;;;;;;15.20;8.00;;;;;;;0.37;48.01;101729.76;105539;1253;75098;-25
2023/02/08 11:05:52;;;;;;;17.00;9.70;;;;;;;0.56;46.70;101731.69;105675;1259;75771;-26
2023/02/08 11:08:23;;;;;;;14.30;7.80;;;;;;;0.39;46.91;101733.88;105670;1252;74335;-25
2023/02/08 11:11:06;;;;;;;18.40;8.80;;;;;;;0.10;47.17;101731.52;105591;1252;61142;-25
2023/02/08 11:13:40;;;;;;;14.50;7.80;;;;;;;-0.07;47.77;101731.27;105675;1253;61052;-25
2023/02/08 11:16:11;;;;;;;15.80;9.00;;;;;;;-0.20;48.22;101729.30;105598;1261;74565;-25
2023/02/08 11:18:49;;;;;;;15.70;8.30;;;;;;;-0.05;47.88;101727.00;105701;1257;74875;-25
2023/02/08 11:21:25;;;;;;;14.20;7.80;;;;;;;0.08;47.95;101728.09;105729;1253;72643;-25
2023/02/08 11:23:54;;;;;;;15.00;8.00;;;;;;;-0.49;48.65;101717.15;105710;1258;61113;-25
2023/02/08 11:26:34;;;;;;;12.80;6.70;;;;;;;-0.65;49.33;101716.70;105781;1253;60975;-25
2023/02/08 11:29:24;;;;;;;13.30;8.10;;;;;;;-0.38;48.94;101715.70;105332;1253;74511;-26
2023/02/08 11:31:59;;;;;;;16.00;9.10;;;;;;;-0.41;48.73;101715.34;105556;1254;75769;-25
2023/02/08 11:34:37;;;;;;;12.10;6.60;;;;;;;-0.04;49.05;101713.18;105685;1253;74076;-26
2023/02/08 11:37:25;;;;;;;11.40;6.80;;;;;;;0.02;48.00;101713.38;105573;1253;61199;-26
2023/02/08 11:39:55;;;;;;;13.80;7.60;;;;;;;0.07;47.82;101713.05;105711;1254;61069;-26
2023/02/08 11:42:28;;;;;;;14.10;8.10;;;;;;;0.24;46.71;101713.81;105692;1253;72440;-26
2023/02/08 11:44:57;;;;;;;13.60;7.60;;;;;;;0.28;46.14;101708.20;105751;1254;75676;-26
2023/02/08 11:47:33;;;;;;;12.30;7.00;;;;;;;0.15;47.03;101712.23;105628;1258;74124;-26
2023/02/08 11:50:04;;;;;;;12.10;6.80;;;;;;;-0.12;48.03;101713.64;105668;1254;61158;-26
2023/02/08 11:52:34;;;;;;;13.90;7.60;;;;;;;-0.04;48.44;101713.68;105432;1258;61852;-26